Time;durP1;ratioP1;P1;durP2;ratioP2;P2;SDS_P1;SDS_P2;PMS_P1;PMS_P2;Temp;Humidity;BMP_temperature;BMP_pressure;BME280_temperature;BME280_humidity;BME280_pressure;Samples;Min_cycle;Max_cycle;Signal;HPM_P1;HPM_P2
2022/01/18 00:01:26;;;;;;;15.33;8.23;;;5.80;93.10;;;;;;5092781;28;20437;-71
2022/01/18 00:03:52;;;;;;;18.13;8.37;;;5.70;93.30;;;;;;5092411;28;20460;-71
2022/01/18 00:06:18;;;;;;;16.20;8.80;;;5.70;93.40;;;;;;5092829;28;20872;-72
2022/01/18 00:08:44;;;;;;;19.77;10.47;;;5.70;93.40;;;;;;5092566;28;20425;-72
2022/01/18 00:11:10;;;;;;;22.30;10.60;;;5.70;93.40;;;;;;5093075;28;20186;-70
2022/01/18 00:13:40;;;;;;;18.10;9.20;;;5.60;93.60;;;;;;5090812;28;20979;-70
2022/01/18 00:18:35;;;;;;;19.90;9.00;;;5.60;93.80;;;;;;5094364;28;20792;-71
2022/01/18 00:23:37;;;;;;;21.30;9.80;;;5.60;94.00;;;;;;5091912;28;20435;-72
2022/01/18 00:26:05;;;;;;;21.90;10.00;;;5.60;94.10;;;;;;5091714;28;20445;-72
2022/01/18 00:28:32;;;;;;;20.57;9.27;;;5.60;94.20;;;;;;5092640;28;20795;-70
2022/01/18 00:34:00;;;;;;;23.00;11.00;;;5.60;94.30;;;;;;5091596;28;20482;-70
2022/01/18 00:36:29;;;;;;;18.37;9.97;;;5.60;94.40;;;;;;5091301;28;20440;-72
2022/01/18 00:38:56;;;;;;;21.67;9.87;;;5.50;94.40;;;;;;5091295;28;20420;-70
2022/01/18 00:41:25;;;;;;;19.17;9.90;;;5.50;94.40;;;;;;5091999;28;20428;-71
2022/01/18 00:43:52;;;;;;;22.07;9.10;;;5.60;94.60;;;;;;5091279;28;20815;-71
2022/01/18 00:46:18;;;;;;;25.47;10.60;;;5.60;94.50;;;;;;5091663;28;20461;-71
2022/01/18 00:48:44;;;;;;;21.10;8.73;;;5.60;94.50;;;;;;5092037;28;20873;-71
2022/01/18 00:51:13;;;;;;;23.13;9.63;;;5.60;94.50;;;;;;5092210;28;20428;-71
2022/01/18 00:53:44;;;;;;;20.10;10.27;;;5.70;94.30;;;;;;5092190;28;20468;-72
2022/01/18 00:58:41;;;;;;;16.50;8.90;;;5.70;94.40;;;;;;5091774;28;20440;-72
2022/01/18 01:01:07;;;;;;;22.50;9.03;;;5.70;94.30;;;;;;5091602;28;20833;-71
2022/01/18 01:03:34;;;;;;;21.47;8.83;;;5.70;94.10;;;;;;5091156;28;20474;-72
2022/01/18 01:06:01;;;;;;;20.13;9.00;;;5.70;94.10;;;;;;5090273;28;20449;-70
2022/01/18 01:08:26;;;;;;;20.47;10.10;;;5.70;94.10;;;;;;5092286;28;20436;-71
2022/01/18 01:10:52;;;;;;;18.90;9.80;;;5.70;94.10;;;;;;5092031;28;20436;-70
2022/01/18 01:13:18;;;;;;;22.80;9.73;;;5.70;94.20;;;;;;5092063;28;20203;-69
2022/01/18 01:18:36;;;;;;;24.57;10.97;;;5.90;94.20;;;;;;5091851;28;20946;-70
2022/01/18 01:32:28;;;;;;;25.13;10.63;;;5.90;93.60;;;;;;5092859;28;20411;-71
2022/01/18 01:43:17;;;;;;;23.37;10.47;;;5.80;93.50;;;;;;5088549;28;20408;-71
2022/01/18 01:45:43;;;;;;;23.30;10.80;;;5.70;93.80;;;;;;5095029;28;20452;-71
2022/01/18 01:48:09;;;;;;;26.30;11.07;;;5.70;94.00;;;;;;5095198;28;20417;-71
2022/01/18 01:50:50;;;;;;;27.63;12.40;;;5.80;93.70;;;;;;5093992;28;20187;-71
2022/01/18 01:53:18;;;;;;;24.10;10.60;;;5.80;93.80;;;;;;5094792;28;20468;-70
2022/01/18 01:55:44;;;;;;;23.47;10.53;;;5.80;93.90;;;;;;5094326;28;20501;-71
2022/01/18 01:58:10;;;;;;;29.73;11.93;;;5.90;94.00;;;;;;5096175;28;20421;-71
2022/01/18 02:00:48;;;;;;;24.03;11.83;;;5.90;94.00;;;;;;5095150;28;20421;-70
2022/01/18 02:03:14;;;;;;;26.07;13.07;;;6.00;93.80;;;;;;5094711;28;20413;-70
2022/01/18 02:05:41;;;;;;;24.70;11.07;;;6.00;93.70;;;;;;5094621;28;21107;-70
2022/01/18 02:08:07;;;;;;;27.10;12.20;;;6.00;93.70;;;;;;5088988;28;20512;-70
2022/01/18 02:10:38;;;;;;;23.53;11.87;;;5.90;93.80;;;;;;5095069;28;20812;-71
2022/01/18 02:13:05;;;;;;;25.67;12.50;;;5.90;94.00;;;;;;5087653;28;20548;-71
2022/01/18 02:15:31;;;;;;;28.30;14.03;;;5.90;94.30;;;;;;5094482;28;20425;-70
2022/01/18 02:23:29;;;;;;;28.97;12.57;;;5.90;94.60;;;;;;5095402;28;20423;-71
2022/01/18 02:25:55;;;;;;;26.70;13.30;;;5.90;94.40;;;;;;5095010;28;20436;-70
2022/01/18 02:28:22;;;;;;;25.23;12.03;;;5.90;94.40;;;;;;5095274;28;20805;-71
2022/01/18 02:30:49;;;;;;;22.30;12.30;;;5.90;94.20;;;;;;5094617;28;20413;-72
2022/01/18 02:33:15;;;;;;;26.80;12.70;;;5.90;94.00;;;;;;5098620;28;20460;-71
2022/01/18 02:35:41;;;;;;;27.23;11.87;;;5.80;93.90;;;;;;5102925;28;20523;-70
2022/01/18 02:38:07;;;;;;;27.73;14.40;;;5.80;93.80;;;;;;5107380;28;20415;-71
2022/01/18 02:40:33;;;;;;;26.13;11.63;;;5.80;93.60;;;;;;5108561;28;20405;-71
2022/01/18 02:43:46;;;;;;;27.33;12.87;;;5.80;93.50;;;;;;5103559;28;20432;-71
2022/01/18 02:45:48;;;;;;;27.40;12.60;;;5.60;93.50;;;;;;5095998;28;20575;-70
2022/01/18 02:48:14;;;;;;;31.07;14.13;;;5.50;93.80;;;;;;5094773;28;20428;-73
2022/01/18 02:50:40;;;;;;;26.47;12.53;;;5.50;94.00;;;;;;5095631;28;20482;-71
2022/01/18 02:53:06;;;;;;;30.50;12.93;;;5.50;94.10;;;;;;5092791;28;20987;-70
2022/01/18 02:55:32;;;;;;;27.43;12.77;;;5.50;94.30;;;;;;5094162;28;20198;-71
2022/01/18 02:58:04;;;;;;;32.77;15.00;;;5.60;94.30;;;;;;5094149;28;20175;-72
2022/01/18 03:00:42;;;;;;;29.13;13.50;;;5.60;94.50;;;;;;5095166;28;20186;-71
2022/01/18 03:03:12;;;;;;;33.77;13.50;;;5.70;94.50;;;;;;5094544;28;20417;-72
2022/01/18 03:05:38;;;;;;;33.77;14.07;;;5.70;94.60;;;;;;5093831;28;20432;-72
2022/01/18 03:08:04;;;;;;;24.30;13.40;;;5.70;94.50;;;;;;5093997;28;20460;-71
2022/01/18 03:10:30;;;;;;;33.57;13.93;;;5.80;94.60;;;;;;5093871;28;20415;-71
2022/01/18 03:12:56;;;;;;;33.73;14.77;;;5.80;94.60;;;;;;5090573;28;20202;-71
2022/01/18 03:15:22;;;;;;;32.73;14.30;;;5.90;94.20;;;;;;5099720;28;20441;-70
2022/01/18 03:17:47;;;;;;;27.70;13.27;;;5.90;94.10;;;;;;5092515;28;20179;-70
2022/01/18 03:20:15;;;;;;;32.97;13.77;;;6.00;94.00;;;;;;5093200;28;20234;-72
2022/01/18 03:22:41;;;;;;;29.13;13.47;;;5.90;93.80;;;;;;5091487;28;20237;-70
2022/01/18 03:26:15;;;;;;;26.90;14.27;;;6.00;93.90;;;;;;5092850;28;20405;-70
2022/01/18 03:28:06;;;;;;;31.43;12.90;;;5.90;93.90;;;;;;5076867;28;20191;-72
2022/01/18 03:30:35;;;;;;;27.30;12.67;;;5.90;93.90;;;;;;5093141;28;20413;-71
2022/01/18 03:33:03;;;;;;;29.90;12.60;;;6.00;93.80;;;;;;5092866;28;20506;-71
2022/01/18 03:35:28;;;;;;;32.07;12.20;;;6.00;93.50;;;;;;5092643;28;20843;-72
2022/01/18 03:37:54;;;;;;;34.20;14.20;;;5.90;93.20;;;;;;5093296;28;20409;-70
2022/01/18 03:40:20;;;;;;;30.73;14.70;;;5.90;93.20;;;;;;5093028;28;20177;-72
2022/01/18 03:42:47;;;;;;;33.83;15.70;;;5.90;93.40;;;;;;5092815;28;20236;-71
2022/01/18 03:45:23;;;;;;;29.73;14.57;;;5.90;93.40;;;;;;5092921;28;20970;-71
2022/01/18 03:47:49;;;;;;;26.30;12.33;;;5.90;93.40;;;;;;5093908;28;20915;-71
2022/01/18 03:50:16;;;;;;;30.10;13.90;;;5.90;93.50;;;;;;5094049;28;20414;-69
2022/01/18 03:52:43;;;;;;;33.33;14.87;;;5.80;93.20;;;;;;5091881;28;21093;-72
2022/01/18 03:55:11;;;;;;;28.60;12.97;;;5.80;93.50;;;;;;5092474;28;20777;-71
2022/01/18 03:57:38;;;;;;;30.53;13.90;;;5.80;93.40;;;;;;5093008;28;20550;-72
2022/01/18 04:00:07;;;;;;;25.03;12.53;;;5.80;93.40;;;;;;5093457;28;20504;-72
2022/01/18 04:02:33;;;;;;;28.03;13.30;;;5.80;93.40;;;;;;5091957;28;20422;-71
2022/01/18 04:05:00;;;;;;;31.73;13.63;;;5.90;93.50;;;;;;5092937;28;20915;-72
2022/01/18 04:07:26;;;;;;;31.80;12.93;;;5.90;93.10;;;;;;5093583;28;20438;-72
2022/01/18 04:09:51;;;;;;;29.83;13.57;;;5.80;92.90;;;;;;5093645;28;20459;-71
2022/01/18 04:12:17;;;;;;;29.33;13.70;;;5.80;93.00;;;;;;5093733;28;20171;-70
2022/01/18 04:14:43;;;;;;;32.27;14.90;;;5.80;93.10;;;;;;5092818;28;20634;-73
2022/01/18 04:27:45;;;;;;;31.73;14.50;;;5.80;93.20;;;;;;5090094;28;20443;-71
2022/01/18 04:30:11;;;;;;;36.00;14.83;;;5.80;93.20;;;;;;5092131;28;20417;-71
2022/01/18 04:32:37;;;;;;;38.33;15.20;;;5.70;93.10;;;;;;5092068;28;20468;-72
2022/01/18 04:35:03;;;;;;;36.20;15.53;;;5.70;93.40;;;;;;5092255;28;20187;-71
2022/01/18 04:37:29;;;;;;;32.87;13.70;;;5.60;93.60;;;;;;5092099;28;20753;-72
2022/01/18 04:39:57;;;;;;;37.23;15.13;;;5.60;93.70;;;;;;5092579;28;20405;-71
2022/01/18 04:42:40;;;;;;;34.43;13.83;;;5.50;93.70;;;;;;5092410;28;20478;-71
2022/01/18 04:50:35;;;;;;;38.03;15.57;;;5.50;94.00;;;;;;5089962;28;20454;-70
2022/01/18 04:53:01;;;;;;;36.90;16.87;;;5.50;94.20;;;;;;5091952;28;20533;-70
2022/01/18 04:55:31;;;;;;;32.07;15.53;;;5.60;94.30;;;;;;5092048;28;20199;-71
2022/01/18 04:57:57;;;;;;;40.00;16.73;;;5.60;94.20;;;;;;5088946;28;20550;-71
2022/01/18 05:00:25;;;;;;;34.37;14.70;;;5.50;94.20;;;;;;5092730;28;20461;-71
2022/01/18 05:02:52;;;;;;;36.67;16.00;;;5.60;94.30;;;;;;5092335;28;21244;-70
2022/01/18 05:05:30;;;;;;;36.80;15.40;;;5.60;94.20;;;;;;5092375;28;20421;-70
2022/01/18 05:07:59;;;;;;;36.77;15.87;;;5.70;94.10;;;;;;5091397;28;20907;-70
2022/01/18 05:10:28;;;;;;;38.57;16.83;;;5.70;94.00;;;;;;5092803;28;20844;-70
2022/01/18 05:12:56;;;;;;;38.80;16.03;;;5.70;94.00;;;;;;5092407;28;20461;-72
2022/01/18 05:23:18;;;;;;;42.87;16.80;;;5.50;93.70;;;;;;5091097;28;20926;-70
2022/01/18 05:25:46;;;;;;;36.50;16.10;;;5.30;93.80;;;;;;5091019;28;20532;-71
2022/01/18 05:28:12;;;;;;;32.40;15.83;;;5.30;94.20;;;;;;5090792;28;20603;-70
2022/01/18 05:30:37;;;;;;;38.17;17.43;;;5.30;94.30;;;;;;5090565;28;20477;-72
2022/01/18 05:33:03;;;;;;;38.87;16.97;;;5.40;94.50;;;;;;5090316;28;20468;-71
2022/01/18 05:35:29;;;;;;;37.53;16.83;;;5.40;94.40;;;;;;5089926;28;20199;-72
2022/01/18 05:37:55;;;;;;;34.23;15.83;;;5.40;94.30;;;;;;5090336;28;20526;-70
2022/01/18 05:40:21;;;;;;;44.43;16.50;;;5.40;94.50;;;;;;5090153;28;20452;-71
2022/01/18 05:42:47;;;;;;;37.10;17.03;;;5.40;94.50;;;;;;5090018;28;20183;-70
2022/01/18 05:45:14;;;;;;;38.83;16.50;;;5.30;94.40;;;;;;5088696;28;20447;-71
2022/01/18 05:47:41;;;;;;;40.10;16.60;;;5.40;94.40;;;;;;5090448;28;20188;-71
2022/01/18 05:50:09;;;;;;;40.87;16.47;;;5.30;94.40;;;;;;5090113;28;20416;-71
2022/01/18 05:52:35;;;;;;;39.73;16.67;;;5.30;94.40;;;;;;5089645;28;20577;-69
2022/01/18 05:55:01;;;;;;;34.07;16.23;;;5.30;94.40;;;;;;5090323;28;20417;-73
2022/01/18 05:57:27;;;;;;;38.23;17.83;;;5.20;94.60;;;;;;5090753;28;20528;-72
2022/01/18 06:00:00;;;;;;;37.03;16.87;;;5.20;94.70;;;;;;5090028;28;20514;-73
2022/01/18 06:07:45;;;;;;;39.10;16.27;;;5.20;94.70;;;;;;5090332;28;20424;-73
2022/01/18 06:10:11;;;;;;;39.57;15.37;;;5.30;94.70;;;;;;5092790;28;20417;-72
2022/01/18 06:12:39;;;;;;;39.97;16.87;;;5.30;94.40;;;;;;5093327;28;20671;-72
2022/01/18 06:15:05;;;;;;;44.57;16.67;;;5.30;94.30;;;;;;5092124;28;20175;-72
2022/01/18 06:17:31;;;;;;;39.00;17.17;;;5.30;94.30;;;;;;5093541;28;20841;-71
2022/01/18 06:19:56;;;;;;;38.83;16.27;;;5.30;94.30;;;;;;5093849;28;20482;-72
2022/01/18 06:22:22;;;;;;;37.57;16.90;;;5.30;94.10;;;;;;5093166;28;20171;-72
2022/01/18 06:24:48;;;;;;;38.50;16.90;;;5.30;94.10;;;;;;5098670;28;20194;-72
2022/01/18 06:27:14;;;;;;;42.20;16.50;;;5.40;94.20;;;;;;5100211;28;20207;-72
2022/01/18 06:29:39;;;;;;;39.13;17.40;;;5.40;94.10;;;;;;5100111;28;20421;-72
2022/01/18 06:32:06;;;;;;;35.00;15.23;;;5.40;94.00;;;;;;5098973;28;20190;-71
2022/01/18 06:34:32;;;;;;;45.53;17.40;;;5.30;93.80;;;;;;5097593;28;20573;-71
2022/01/18 06:36:59;;;;;;;43.33;16.87;;;5.30;93.90;;;;;;5094306;28;20438;-71
2022/01/18 06:39:25;;;;;;;42.37;16.43;;;5.30;94.00;;;;;;5094332;28;21075;-73
2022/01/18 06:41:51;;;;;;;43.63;17.90;;;5.30;94.20;;;;;;5095523;28;20482;-71
2022/01/18 06:44:17;;;;;;;43.67;17.50;;;5.30;94.40;;;;;;5095894;28;20417;-71
2022/01/18 06:46:43;;;;;;;51.47;18.73;;;5.30;94.50;;;;;;5094044;28;20524;-72
2022/01/18 06:49:09;;;;;;;44.07;17.60;;;5.30;94.40;;;;;;5093705;28;20419;-71
2022/01/18 06:51:34;;;;;;;42.40;16.80;;;5.20;94.40;;;;;;5092224;28;20195;-71
2022/01/18 06:54:00;;;;;;;44.30;17.13;;;5.20;94.50;;;;;;5093335;28;20669;-72
2022/01/18 06:56:26;;;;;;;49.60;18.37;;;5.20;94.60;;;;;;5097534;28;20560;-72
2022/01/18 06:58:53;;;;;;;40.07;18.33;;;5.20;94.60;;;;;;5096399;28;20179;-71
2022/01/18 07:01:19;;;;;;;47.63;18.13;;;5.20;94.70;;;;;;5105418;28;20421;-72
2022/01/18 07:03:48;;;;;;;45.13;18.03;;;5.20;94.80;;;;;;5094946;28;20444;-72
2022/01/18 07:06:17;;;;;;;36.00;17.37;;;5.20;94.80;;;;;;5096763;28;20513;-71
2022/01/18 07:08:43;;;;;;;44.67;18.53;;;5.20;94.80;;;;;;5093971;28;20440;-72
2022/01/18 07:11:09;;;;;;;46.50;18.00;;;5.30;94.80;;;;;;5092890;28;20457;-71
2022/01/18 07:13:35;;;;;;;42.63;17.17;;;5.30;94.70;;;;;;5092902;28;20904;-71
2022/01/18 07:16:01;;;;;;;41.50;17.93;;;5.20;94.70;;;;;;5092362;28;20447;-72
2022/01/18 07:18:27;;;;;;;41.43;17.03;;;5.30;94.70;;;;;;5092745;28;20418;-72
2022/01/18 07:20:53;;;;;;;45.67;18.97;;;5.20;94.60;;;;;;5091837;28;20417;-72
2022/01/18 07:23:20;;;;;;;41.20;18.30;;;5.20;94.70;;;;;;5092212;28;20425;-72
2022/01/18 07:25:47;;;;;;;36.53;17.03;;;5.20;94.80;;;;;;5092138;28;20508;-72
2022/01/18 07:28:16;;;;;;;41.27;18.37;;;5.20;94.90;;;;;;5092712;28;20850;-73
2022/01/18 07:30:42;;;;;;;38.20;17.30;;;5.20;94.90;;;;;;5092378;28;20987;-71
2022/01/18 07:33:09;;;;;;;52.30;18.93;;;5.30;95.00;;;;;;5091939;28;20622;-73
2022/01/18 07:35:35;;;;;;;33.57;15.43;;;5.30;94.90;;;;;;5091335;28;20241;-71
2022/01/18 07:38:04;;;;;;;41.60;17.40;;;5.40;94.80;;;;;;5091958;28;20420;-72
2022/01/18 07:40:32;;;;;;;36.17;16.73;;;5.40;94.50;;;;;;5093432;28;20524;-73
2022/01/18 07:43:00;;;;;;;44.13;16.57;;;5.50;94.10;;;;;;5092210;28;20517;-72
2022/01/18 07:45:27;;;;;;;42.07;16.97;;;5.50;93.90;;;;;;5088558;28;20456;-72
2022/01/18 07:47:53;;;;;;;40.17;17.93;;;5.50;93.80;;;;;;5089531;28;20431;-72
2022/01/18 07:50:19;;;;;;;35.50;16.80;;;5.50;93.90;;;;;;5093394;28;20435;-71
2022/01/18 07:52:45;;;;;;;45.63;17.73;;;5.50;93.80;;;;;;5099320;28;20485;-71
2022/01/18 07:55:11;;;;;;;43.67;18.47;;;5.50;93.70;;;;;;5099901;28;20472;-73
2022/01/18 07:57:41;;;;;;;38.73;16.77;;;5.50;93.80;;;;;;5098883;28;20513;-71
2022/01/18 08:00:09;;;;;;;42.23;17.87;;;5.60;93.90;;;;;;5093946;28;20447;-72
2022/01/18 08:02:36;;;;;;;49.13;19.30;;;5.60;93.90;;;;;;5092424;28;21255;-71
2022/01/18 08:05:06;;;;;;;44.07;18.07;;;5.60;93.90;;;;;;5091822;28;20409;-72
2022/01/18 08:07:32;;;;;;;44.07;18.93;;;5.60;94.00;;;;;;5091988;28;20517;-72
2022/01/18 08:09:58;;;;;;;42.90;16.53;;;5.60;94.00;;;;;;5091948;28;20483;-72
2022/01/18 08:12:24;;;;;;;39.43;18.00;;;5.60;93.70;;;;;;5091513;28;20410;-73
2022/01/18 08:14:53;;;;;;;44.17;19.13;;;5.60;93.60;;;;;;5091661;28;20492;-73
2022/01/18 08:17:20;;;;;;;47.47;20.50;;;5.50;93.80;;;;;;5091917;28;20256;-72
2022/01/18 08:19:45;;;;;;;40.30;16.80;;;5.50;93.90;;;;;;5091923;28;20413;-72
2022/01/18 08:22:11;;;;;;;39.10;18.60;;;5.40;93.90;;;;;;5091323;28;20508;-72
2022/01/18 08:24:38;;;;;;;43.23;17.80;;;5.40;93.70;;;;;;5091678;28;20557;-72
2022/01/18 08:27:04;;;;;;;40.23;17.60;;;5.40;93.80;;;;;;5090973;28;20203;-72
2022/01/18 08:29:30;;;;;;;39.00;17.07;;;5.50;93.70;;;;;;5089872;28;20420;-72
2022/01/18 08:31:56;;;;;;;39.70;19.00;;;5.50;93.50;;;;;;5091117;28;21159;-72
2022/01/18 08:34:22;;;;;;;35.60;16.83;;;5.60;93.40;;;;;;5090743;28;20639;-71
2022/01/18 08:36:50;;;;;;;36.73;18.43;;;5.50;93.10;;;;;;5090870;28;21492;-72
2022/01/18 08:39:16;;;;;;;46.90;18.03;;;5.50;93.10;;;;;;5091124;28;20414;-73
2022/01/18 08:41:41;;;;;;;45.27;18.60;;;5.60;93.40;;;;;;5091185;28;20436;-73
2022/01/18 08:44:07;;;;;;;49.13;19.03;;;5.60;93.30;;;;;;5090787;28;20540;-72
2022/01/18 08:46:33;;;;;;;39.00;17.30;;;5.60;93.30;;;;;;5090642;28;20234;-72
2022/01/18 08:48:59;;;;;;;34.63;17.70;;;5.70;93.30;;;;;;5091239;28;20180;-70
2022/01/18 08:51:26;;;;;;;48.50;18.80;;;5.60;92.90;;;;;;5090777;28;20179;-72
2022/01/18 08:53:52;;;;;;;40.33;18.63;;;5.60;92.80;;;;;;5090545;28;20464;-72
2022/01/18 08:56:18;;;;;;;47.43;18.40;;;5.60;93.00;;;;;;5090403;28;20429;-72
2022/01/18 08:58:45;;;;;;;38.70;19.47;;;5.70;93.40;;;;;;5090603;28;20179;-72
2022/01/18 09:01:10;;;;;;;41.50;18.53;;;5.70;93.10;;;;;;5090781;28;20911;-71
2022/01/18 09:03:37;;;;;;;41.00;17.87;;;5.70;92.70;;;;;;5090451;28;20422;-71
2022/01/18 09:06:04;;;;;;;36.23;17.20;;;5.80;92.90;;;;;;5088910;28;20230;-72
2022/01/18 09:08:32;;;;;;;40.30;17.80;;;5.90;92.90;;;;;;5090545;28;20745;-72
2022/01/18 09:10:57;;;;;;;37.40;15.87;;;6.00;92.60;;;;;;5090568;28;20441;-73
2022/01/18 09:13:23;;;;;;;39.00;17.83;;;6.00;92.20;;;;;;5090343;28;20560;-72
2022/01/18 09:15:50;;;;;;;43.23;18.67;;;6.00;92.10;;;;;;5090166;28;20433;-71
2022/01/18 09:18:16;;;;;;;35.13;17.30;;;6.00;91.90;;;;;;5089015;28;20409;-72
2022/01/18 09:20:43;;;;;;;37.63;17.90;;;6.10;92.10;;;;;;5090823;28;20735;-72
2022/01/18 09:23:09;;;;;;;43.07;18.83;;;6.20;91.50;;;;;;5090414;28;20413;-72
2022/01/18 09:25:36;;;;;;;38.83;17.30;;;6.20;91.30;;;;;;5089112;28;20449;-72
2022/01/18 09:28:03;;;;;;;38.60;18.60;;;6.20;91.10;;;;;;5089141;28;20427;-72
2022/01/18 09:30:30;;;;;;;41.50;18.17;;;6.20;91.20;;;;;;5090233;28;20419;-72
2022/01/18 09:32:58;;;;;;;37.83;15.70;;;6.30;91.10;;;;;;5090749;28;20911;-71
2022/01/18 09:35:25;;;;;;;38.77;17.33;;;6.30;91.20;;;;;;5090683;28;20433;-73
2022/01/18 09:37:51;;;;;;;37.20;17.40;;;6.40;90.70;;;;;;5090528;28;20584;-73
2022/01/18 09:40:19;;;;;;;32.37;15.60;;;6.40;90.60;;;;;;5090813;28;20429;-73
2022/01/18 09:42:47;;;;;;;35.33;17.33;;;6.50;90.60;;;;;;5091071;28;20425;-72
2022/01/18 09:45:17;;;;;;;40.27;17.47;;;6.60;90.50;;;;;;5093633;28;20433;-71
2022/01/18 09:47:45;;;;;;;37.40;16.90;;;6.70;90.20;;;;;;5094604;28;20968;-71
2022/01/18 09:50:15;;;;;;;36.23;15.83;;;6.70;89.50;;;;;;5094751;28;20748;-73
2022/01/18 09:52:41;;;;;;;36.73;15.50;;;6.60;89.20;;;;;;5093919;28;20508;-72
2022/01/18 09:55:09;;;;;;;31.00;14.63;;;6.50;89.70;;;;;;5093955;28;20524;-72
2022/01/18 09:57:36;;;;;;;38.30;16.07;;;6.50;90.00;;;;;;5093201;28;20429;-70
2022/01/18 10:00:04;;;;;;;31.30;14.20;;;6.40;89.60;;;;;;5094412;28;20431;-71
2022/01/18 10:02:30;;;;;;;39.40;16.43;;;6.20;90.00;;;;;;5093839;28;20424;-72
2022/01/18 10:04:58;;;;;;;33.27;15.50;;;6.10;90.40;;;;;;5094081;28;20413;-73
2022/01/18 10:07:32;;;;;;;38.03;14.90;;;6.10;90.50;;;;;;5093967;28;20203;-72
2022/01/18 10:10:05;;;;;;;36.93;15.67;;;6.10;90.50;;;;;;5082788;28;20413;-73
2022/01/18 10:12:31;;;;;;;33.57;12.30;;;6.10;90.40;;;;;;5093824;28;20462;-73
2022/01/18 10:14:59;;;;;;;32.30;12.73;;;6.00;90.50;;;;;;5093856;28;20974;-73
2022/01/18 10:17:43;;;;;;;32.77;13.03;;;6.00;90.50;;;;;;5094052;28;20437;-71
2022/01/18 10:20:18;;;;;;;23.20;11.13;;;6.10;90.20;;;;;;5088186;28;20412;-72
2022/01/18 10:22:49;;;;;;;40.20;13.23;;;6.10;89.70;;;;;;5092681;28;20420;-73
2022/01/18 10:25:16;;;;;;;34.10;15.17;;;6.10;89.90;;;;;;5093759;28;20424;-72
2022/01/18 10:27:42;;;;;;;28.90;12.90;;;6.00;89.30;;;;;;5093758;28;20502;-71
2022/01/18 10:30:14;;;;;;;30.63;12.23;;;6.00;89.60;;;;;;5094476;28;20444;-71
2022/01/18 10:32:42;;;;;;;28.07;12.90;;;6.00;89.70;;;;;;5097848;28;20433;-71
2022/01/18 10:35:09;;;;;;;26.30;11.57;;;6.00;89.90;;;;;;5095937;28;20428;-73
2022/01/18 10:37:41;;;;;;;33.63;13.23;;;6.00;89.70;;;;;;5094909;28;20478;-73
2022/01/18 10:40:14;;;;;;;28.20;13.33;;;5.90;89.70;;;;;;5095098;28;20421;-72
2022/01/18 10:42:52;;;;;;;29.30;12.27;;;5.90;90.00;;;;;;5096957;28;20795;-71
2022/01/18 10:45:27;;;;;;;28.60;12.47;;;5.90;90.00;;;;;;5093890;28;20944;-72
2022/01/18 10:47:59;;;;;;;28.83;11.97;;;5.80;89.50;;;;;;5087323;28;20421;-72
2022/01/18 10:50:26;;;;;;;32.70;12.40;;;5.80;89.90;;;;;;5093392;28;20413;-74
2022/01/18 10:52:55;;;;;;;38.40;13.47;;;6.00;90.00;;;;;;5093139;28;20445;-74
2022/01/18 10:55:23;;;;;;;32.20;12.60;;;6.00;89.30;;;;;;5092304;28;20520;-73
2022/01/18 10:57:49;;;;;;;26.23;11.97;;;6.10;89.30;;;;;;5093485;28;20512;-73
2022/01/18 11:00:18;;;;;;;26.10;12.50;;;6.20;88.90;;;;;;5092734;28;20425;-72
2022/01/18 11:02:46;;;;;;;28.17;12.33;;;6.40;88.10;;;;;;5093369;28;20416;-73
2022/01/18 11:05:15;;;;;;;25.17;11.43;;;6.40;87.10;;;;;;5093014;28;20413;-72
2022/01/18 11:07:41;;;;;;;30.20;12.50;;;6.30;87.10;;;;;;5093131;28;20920;-72
2022/01/18 11:10:08;;;;;;;33.47;11.47;;;6.40;87.40;;;;;;5093442;28;20417;-73
2022/01/18 11:13:07;;;;;;;22.47;10.83;;;6.50;86.90;;;;;;5092974;28;20788;-72
2022/01/18 11:15:36;;;;;;;24.47;10.47;;;6.60;86.30;;;;;;5090638;28;21066;-72
2022/01/18 11:18:06;;;;;;;22.30;11.13;;;6.70;85.60;;;;;;5095771;28;20413;-73
2022/01/18 11:20:42;;;;;;;21.20;10.13;;;6.70;85.50;;;;;;5093779;28;20409;-70
2022/01/18 11:23:09;;;;;;;21.70;10.47;;;6.70;85.30;;;;;;5095933;28;20483;-73
2022/01/18 11:25:37;;;;;;;20.13;9.30;;;6.70;85.20;;;;;;5105279;28;20524;-74
2022/01/18 11:28:05;;;;;;;28.13;9.60;;;6.60;85.00;;;;;;5114061;28;20424;-73
2022/01/18 11:30:35;;;;;;;21.90;9.60;;;6.50;84.40;;;;;;5110205;28;20462;-71
2022/01/18 11:33:05;;;;;;;22.43;9.93;;;6.40;85.50;;;;;;5101767;28;20451;-72
2022/01/18 11:35:53;;;;;;;22.70;9.93;;;6.40;85.50;;;;;;5093222;28;20429;-71
2022/01/18 11:38:39;;;;;;;20.83;9.50;;;6.50;86.00;;;;;;5093308;28;20421;-71
2022/01/18 11:41:06;;;;;;;19.90;9.63;;;6.40;85.70;;;;;;5086129;28;20424;-72
2022/01/18 11:43:42;;;;;;;21.90;10.17;;;6.40;85.60;;;;;;5092167;28;20421;-73
2022/01/18 11:46:23;;;;;;;25.97;10.67;;;6.50;85.90;;;;;;5092405;28;20510;-72
2022/01/18 11:48:58;;;;;;;18.93;9.97;;;6.60;85.70;;;;;;5092406;28;20980;-71
2022/01/18 11:51:44;;;;;;;19.03;10.40;;;6.60;85.60;;;;;;5093919;28;20465;-72
2022/01/18 11:54:59;;;;;;;20.00;9.20;;;6.70;85.20;;;;;;5086901;28;20461;-73
2022/01/18 11:57:23;;;;;;;16.90;8.60;;;6.70;84.40;;;;;;5090887;28;20483;-71
2022/01/18 11:59:55;;;;;;;19.40;10.60;;;6.80;83.80;;;;;;5094288;28;20421;-73
2022/01/18 12:02:55;;;;;;;24.07;9.10;;;7.00;84.10;;;;;;5091175;28;20436;-73
2022/01/18 12:05:24;;;;;;;22.63;8.60;;;7.10;81.50;;;;;;5044563;28;20439;-71
2022/01/18 12:07:57;;;;;;;13.20;6.60;;;7.00;81.50;;;;;;5043143;28;20786;-72
2022/01/18 12:10:32;;;;;;;13.97;6.70;;;7.10;81.10;;;;;;5048441;28;20427;-72
2022/01/18 12:13:04;;;;;;;13.03;5.90;;;6.90;79.00;;;;;;5049349;28;20517;-73
2022/01/18 12:15:32;;;;;;;20.30;9.20;;;6.90;80.00;;;;;;5044093;28;20534;-71
2022/01/18 12:18:03;;;;;;;24.00;9.40;;;6.70;84.90;;;;;;5046991;28;20423;-72
2022/01/18 12:20:44;;;;;;;20.73;9.13;;;6.50;86.90;;;;;;5033340;28;20801;-71
2022/01/18 12:23:22;;;;;;;21.73;9.30;;;6.40;87.40;;;;;;5045434;28;20489;-71
2022/01/18 12:26:01;;;;;;;18.90;8.40;;;6.40;88.00;;;;;;5055288;28;20977;-73
2022/01/18 12:28:44;;;;;;;20.07;8.20;;;6.50;87.40;;;;;;5048126;28;20488;-72
2022/01/18 12:31:40;;;;;;;18.07;8.17;;;6.40;85.90;;;;;;5026988;28;20759;-72
2022/01/18 12:34:29;;;;;;;22.17;8.53;;;6.40;86.50;;;;;;5042387;28;20968;-73
2022/01/18 12:37:06;;;;;;;17.73;8.27;;;6.50;86.20;;;;;;5041782;28;20534;-72
2022/01/18 12:40:10;;;;;;;13.17;6.60;;;6.50;86.00;;;;;;5046104;28;20414;-73
2022/01/18 12:45:33;;;;;;;19.50;8.10;;;6.60;85.70;;;;;;5092035;28;20982;-74
2022/01/18 12:48:13;;;;;;;20.30;11.00;;;6.50;85.90;;;;;;5085839;28;20493;-72
2022/01/18 12:50:39;;;;;;;17.77;8.80;;;6.60;86.30;;;;;;5090451;28;20952;-72
2022/01/18 12:53:23;;;;;;;18.07;7.40;;;6.60;86.50;;;;;;5091188;28;20424;-72
2022/01/18 12:55:55;;;;;;;16.87;7.93;;;6.60;86.80;;;;;;5091849;28;20229;-73
2022/01/18 12:58:25;;;;;;;17.90;6.97;;;6.60;86.80;;;;;;5091092;28;20421;-70
2022/01/18 13:00:56;;;;;;;18.10;7.67;;;6.60;86.60;;;;;;5100865;28;20420;-74
2022/01/18 13:03:28;;;;;;;15.20;7.40;;;6.70;85.30;;;;;;5100550;28;20444;-71
2022/01/18 13:05:56;;;;;;;18.77;5.50;;;6.70;85.20;;;;;;5096331;28;20445;-73
2022/01/18 13:08:29;;;;;;;15.70;6.13;;;6.70;84.10;;;;;;5097498;28;20428;-71
2022/01/18 13:10:55;;;;;;;8.93;4.80;;;6.70;83.30;;;;;;5094732;28;20456;-73
2022/01/18 13:13:29;;;;;;;13.53;5.40;;;6.70;83.30;;;;;;5090995;28;20461;-71
2022/01/18 13:24:19;;;;;;;11.53;4.93;;;6.70;82.50;;;;;;5089271;28;20555;-72
2022/01/18 13:26:49;;;;;;;13.13;4.83;;;6.70;82.70;;;;;;5090765;28;20464;-71
2022/01/18 13:29:19;;;;;;;10.80;4.90;;;6.80;83.00;;;;;;5087183;28;20484;-72
2022/01/18 13:31:48;;;;;;;12.60;5.37;;;6.90;82.80;;;;;;5091103;28;20420;-71
2022/01/18 13:34:16;;;;;;;10.87;4.97;;;6.90;82.20;;;;;;5091598;28;20473;-71
2022/01/18 13:36:55;;;;;;;10.50;5.00;;;6.70;81.90;;;;;;5090338;28;20449;-72
2022/01/18 13:39:51;;;;;;;12.67;5.20;;;6.70;82.20;;;;;;5091680;28;20425;-71
2022/01/18 13:42:25;;;;;;;10.53;4.40;;;6.60;82.80;;;;;;5006744;28;20423;-71
2022/01/18 13:45:25;;;;;;;10.60;4.63;;;6.60;83.00;;;;;;5013994;28;20440;-73
2022/01/18 13:48:01;;;;;;;8.03;4.67;;;6.70;83.40;;;;;;5028682;28;20442;-72
2022/01/18 13:50:47;;;;;;;11.83;5.97;;;7.00;82.80;;;;;;5030069;28;20427;-70
2022/01/18 13:53:13;;;;;;;6.83;3.90;;;7.30;80.90;;;;;;5021203;28;20472;-71
2022/01/18 13:55:48;;;;;;;8.50;4.13;;;7.50;80.30;;;;;;5026114;28;20452;-71
2022/01/18 13:58:24;;;;;;;9.70;4.60;;;7.80;79.70;;;;;;5018202;28;20550;-71
2022/01/18 14:00:50;;;;;;;9.90;5.13;;;8.10;78.00;;;;;;5010732;28;20787;-72
2022/01/18 14:03:48;;;;;;;11.30;5.60;;;8.30;76.70;;;;;;5023100;28;20428;-71
2022/01/18 14:06:16;;;;;;;12.40;4.73;;;8.40;75.50;;;;;;4969179;28;20457;-71
2022/01/18 14:08:49;;;;;;;10.00;4.60;;;8.10;74.80;;;;;;4969222;28;20593;-72
2022/01/18 14:11:35;;;;;;;20.07;6.40;;;8.00;76.10;;;;;;4969481;28;20426;-71